Weather observations for the past three days for
Plant City, Plant City Municipal Airport
Metric (Imperial)
Date Time (edt) Wind (kph) Vis. (km) Weather Sky Cond. Temperature (ºC) Relative Humidity Wind Chill (°C) Heat Index (°C) Pressure Precipitation (cm)
Air Dwpt 6 hour altimeter (cm) sea level (mb) 1 hr 3 hr 6 hr
Max. Min.
08 19:15 W 17 16.09 Fair CLR 30.7 19.9 53% 33 75.95 0.0
08 18:55 W 22 16.09 Fair CLR 31.3 19.7 50% 33 75.92 0.0
08 18:35 W 19 16.09 Fair CLR 31.8 19.5 48% 34 75.92 0.0
08 18:15 SW 19 16.09 Fair CLR 32.1 19.6 48% 34 75.9 0.0
08 17:55 SW 19 16.09 Fair CLR 32.5 19.3 46% 34 75.9 0.0
08 17:35 SW 15 16.09 Fair CLR 32.8 19.4 45% 35 75.9 0.0
08 17:15 W 11 16.09 Fair CLR 32.7 19.3 45% 34 75.9 0.0
08 16:55 SW 15 14.48 Fair CLR 33.2 19.9 46% 35 75.9 0.0
08 16:35 Vrbl 11 14.48 A Few Clouds FEW060 33.1 19.5 45% 35 75.92 0.0
08 16:15 W 17 16.09 Mostly Cloudy BKN060 33.6 19.5 43% 36 75.95 0.0
08 15:55 Vrbl 9 16.09 A Few Clouds FEW060 32.8 17.9 41% 34 75.95 0.0
08 15:35 Vrbl 7 16.09 A Few Clouds FEW060 33.5 18.5 41% 35 75.97 0.0
08 15:15 Calm 16.09 A Few Clouds FEW370 33 17.9 41% 34 76 0.0
08 14:55 W 15 16.09 Fair CLR 33.5 17.9 39% 34 76.02 0.0
08 14:35 NW 11 16.09 A Few Clouds FEW060 33.7 18.4 40% 35 76.05 0.0
08 14:15 W 9 16.09 Partly Cloudy SCT060 SCT320 SCT370 32.9 18.9 43% 34 76.07 0.0
08 13:55 Vrbl 7 16.09 A Few Clouds FEW340 32.3 19.7 32.6 23 47% 34 76.1 0.0
08 13:35 Vrbl 7 16.09 A Few Clouds FEW060 32 19.2 47% 34 76.1 0.0
08 13:15 SW 15 16.09 Partly Cloudy FEW044 SCT060 31.9 20.1 50% 34 76.12 0.0
08 12:55 NW 13 16.09 Mostly Cloudy BKN042 30.5 20.8 56% 33 76.15 0.0
08 12:35 W 9 16.09 Mostly Cloudy BKN043 30.7 20.7 55% 33 76.17 0.0
08 12:15 SW 15 16.09 Partly Cloudy SCT041 31.7 20.5 51% 34 76.2 0.0
08 11:55 W 7 16.09 Partly Cloudy SCT038 SCT050 29.7 20.7 58% 32 76.23 0.0
08 11:35 Vrbl 7 16.09 Mostly Cloudy SCT037 BKN049 29.9 21.1 59% 32 76.23 0.0
08 11:15 NW 11 16.09 Partly Cloudy SCT031 SCT042 29.4 21.8 64% 32 76.25 0.0
08 10:55 Vrbl 7 16.09 Partly Cloudy FEW025 SCT034 28.4 22.1 69% 31 76.25 0.0
08 10:35 Vrbl 6 14.48 Mostly Cloudy SCT024 BKN034 BKN042 28.2 22.5 71% 31 76.25 0.0
08 10:15 N 6 16.09 Mostly Cloudy FEW018 SCT023 SCT031 BKN041 28.4 23.1 73% 32 76.25 0.0
08 09:55 NW 7 14.48 Mostly Cloudy SCT016 SCT023 BKN033 BKN041 27.6 23.7 79% 31 76.25 0.0
08 09:35 W 11 14.48 Overcast BKN014 BKN024 OVC034 26.6 23.9 85% 29 76.25 0.0
08 09:15 NW 11 14.48 Mostly Cloudy SCT013 BKN022 25.9 24.1 90% 28 76.25 0.0
08 08:55 W 7 12.87 Fair CLR 25.4 23.9 91% 27 76.25 0.0
08 08:35 W 9 14.48 Fair CLR 24.8 23.9 95% 25 76.23 0.0
08 08:15 W 6 12.87 Fair CLR 23.9 23.3 96% 23 76.23 0.0
08 07:55 Calm 11.27 Fair CLR 22.3 22.3 22.3 20.5 100% 76.2 0.0
08 07:35 Calm 9.66 Fog/Mist CLR 21.3 21.3 100% 76.17 0.0
08 07:15 Calm 11.27 Fair CLR 21 21 100% 76.17 0.0
08 06:55 Calm 8.05 Fog/Mist CLR 20.5 20.5 100% 76.15 0.0
08 06:35 Calm 4.02 Fog/Mist CLR 20.6 20.6 100% 76.12 0.0
08 06:15 Calm 12.87 Fair CLR 21.8 21.8 100% 76.1 0.0
08 05:55 W 6 14.48 Fair CLR 21.7 21.7 100% 76.1 0.0
08 05:35 W 6 14.48 Fair CLR 21.3 21.3 100% 76.07 0.0
08 05:15 W 6 14.48 Fair CLR 21.6 21.6 100% 76.07 0.0
08 04:55 W 6 14.48 Fair CLR 21.6 21.6 100% 76.07 0.0
08 04:35 W 6 14.48 Fair CLR 21.6 21.6 100% 76.05 0.0
08 04:15 W 6 14.48 Fair CLR 22 22 100% 76.05 0.0
08 03:55 Calm 14.48 Fair CLR 21.5 21.4 99% 76.07 0.0
08 03:35 W 6 14.48 Fair CLR 21.5 21.4 99% 76.07 0.0
08 03:15 W 6 16.09 Fair CLR 21.2 21.1 99% 76.07 0.0
08 02:55 W 6 16.09 Fair CLR 22.1 21.6 97% 76.1 0.0
08 02:35 W 6 16.09 Fair CLR 21.9 21.5 98% 76.1 0.0
08 02:15 W 6 16.09 Fair CLR 22 21.4 96% 76.1 0.0
08 01:55 W 7 16.09 Fair CLR 22.2 21.3 28.5 21.9 95% 76.12 0.0
08 01:35 W 7 16.09 Fair CLR 22.6 20.7 89% 76.15 0.0
08 01:15 NW 9 16.09 Fair CLR 22.8 20.5 87% 76.15 0.0
08 00:55 W 9 16.09 Fair CLR 22.7 20.1 85% 76.15 0.0
08 00:35 W 7 16.09 Fair CLR 23 19.9 83% 76.15 0.0
08 00:15 NW 7 16.09 Fair CLR 23.1 19.8 82% 76.15 0.0
07 23:55 NW 7 16.09 Fair CLR 23.4 19.6 79% 76.15 0.0
07 23:35 NW 7 16.09 Fair CLR 23.6 19.4 77% 76.17 0.0
07 23:15 NW 7 16.09 Fair CLR 24 19.2 75% 25 76.15 0.0
07 22:55 NW 11 16.09 Fair CLR 24.3 19 72% 25 76.15 0.0
07 22:15 NW 9 16.09 Fair CLR 24.9 18.4 67% 26 76.15 0.0
07 21:55 W 9 16.09 Fair CLR 25.4 18.4 65% 26 76.12 0.0
07 21:35 W 7 16.09 Fair CLR 25.6 18.3 64% 27 76.12 0.0
07 21:15 W 9 16.09 Fair CLR 26.2 18.2 61% 27 76.12 0.0
07 20:55 W 9 16.09 Fair CLR 26.9 17.8 58% 28 76.1 0.0
07 20:35 W 7 16.09 Fair CLR 27.4 17.4 54% 28 76.1 0.0
07 20:15 W 9 16.09 Fair CLR 28.1 16.9 51% 29 76.1 0.0
07 19:55 W 11 16.09 Fair CLR 29 16.2 33 29 46% 29 76.1 0.0
07 19:35 NW 15 16.09 Fair CLR 29.7 14.9 41% 29 76.07 0.0
07 19:15 NW 13 16.09 Fair CLR 30.3 12.7 34% 29 76.07 0.0
07 18:55 NW 13 16.09 Fair CLR 31.3 11 29% 30 76.07 0.0
07 18:35 W 15 16.09 Fair CLR 31.5 9.6 26% 30 76.07 0.0
07 18:15 W 13 16.09 Fair CLR 32 9.5 25% 30 76.05 0.0
07 17:55 W 13 16.09 Fair CLR 32.2 10.8 27% 31 76.05 0.0
07 17:35 W 22 16.09 Fair CLR 32.9 11.7 27% 32 76.05 0.0
07 17:15 W 11 16.09 Fair CLR 32.4 12.8 30% 31 76.05 0.0
07 16:15 SW 19 G 28 16.09 Fair CLR 31.8 16.3 39% 32 76.1 0.0
07 15:55 SW 20 16.09 Fair CLR 32.2 13.7 32% 31 76.1 0.0
07 15:35 SW 20 16.09 Fair CLR 32.3 9.8 25% 31 76.15 0.0
07 15:15 W 22 16.09 Fair CLR 32.8 5.3 18% 31 76.15 0.0
07 14:55 W 22 16.09 Fair CLR 32.8 8.4 22% 31 76.17 0.0
07 14:35 W 19 16.09 Fair CLR 32.6 12.6 30% 31 76.17 0.0
07 14:15 W 22 16.09 Fair CLR 32.4 14.9 35% 32 76.2 0.0
07 13:55 W 20 16.09 A Few Clouds FEW350 31.9 16.4 32.3 21.7 39% 32 76.23 0.0
07 13:35 SW 15 16.09 Fair CLR 31.9 18.5 45% 33 76.23 0.0
07 13:15 SW 11 16.09 Fair CLR 31.4 19.8 50% 33 76.23 0.0
07 12:55 SW 15 16.09 Fair CLR 30.7 20 53% 33 76.23 0.0
07 12:35 W 15 16.09 Fair CLR 30.8 20.1 53% 33 76.25 0.0
07 12:15 W 17 16.09 Fair CLR 30.9 18.8 48% 32 76.25 0.0
07 11:55 SW 15 16.09 Fair CLR 30.2 17.9 48% 31 76.28 0.0
07 11:35 SW 15 16.09 Fair CLR 30 17.7 48% 31 76.3 0.0
07 11:15 SW 17 16.09 Fair CLR 29.4 18 50% 30 76.3 0.0
07 10:55 SW 19 16.09 Fair CLR 29.1 18.5 53% 30 76.28 0.0
07 10:35 SW 17 16.09 Fair CLR 28.8 17.6 51% 29 76.28 0.0
07 10:15 S 19 16.09 Fair CLR 28.2 17 51% 29 76.28 0.0
07 09:55 S 17 16.09 Fair CLR 26.9 17.2 55% 28 76.3 0.0
07 09:35 S 11 16.09 Fair CLR 26.2 18.4 62% 27 76.3 0.0
07 09:15 S 11 16.09 Fair CLR 24.9 19.3 71% 26 76.28 0.0
07 08:55 S 11 16.09 Fair CLR 23.7 20 80% 76.25 0.0
07 08:35 S 13 16.09 Fair CLR 22.8 19.8 83% 76.25 0.0
07 08:15 S 11 16.09 Fair CLR 22.1 20.1 88% 76.25 0.0
07 07:55 SE 11 16.09 Fair CLR 21.3 20 22 19.9 92% 76.23 0.0
07 07:35 SE 9 16.09 Fair CLR 20.7 19.9 95% 76.23 0.0
07 07:15 SE 9 16.09 Fair CLR 20.7 19.7 94% 76.2 0.0
07 06:55 E 7 14.48 Fair CLR 19.9 19.9 100% 76.2 0.0
07 06:35 SE 9 16.09 Fair CLR 20.2 20 99% 76.2 0.0
07 06:15 SE 9 16.09 Fair CLR 20.6 20.4 99% 76.2 0.0
07 05:55 Calm 3.22 Fog/Mist CLR 20.1 20.1 100% 76.17 0.0
07 05:35 Calm 6.44 Fog/Mist CLR 20.5 20.5 100% 76.15 0.0
07 05:15 Calm 12.87 Fair CLR 20.5 20.5 100% 76.15 0.0
07 04:55 Calm 9.66 Fog/Mist CLR 20.8 20.8 100% 76.17 0.0
07 04:35 Calm 11.27 Fair CLR 20.8 20.8 100% 76.17 0.0
07 03:55 SE 6 12.87 Fair CLR 21 21 100% 76.15 0.0
07 03:35 Calm 9.66 Fog/Mist CLR 21.2 21.2 100% 76.15 0.0
07 03:15 Calm 14.48 Fair CLR 21.2 21.2 100% 76.17 0.0
07 02:55 Calm 11.27 Fair CLR 21.7 21.7 100% 76.17 0.0
07 02:35 Calm 14.48 Fair CLR 21.6 21.6 100% 76.17 0.0
07 02:15 SE 6 12.87 Fair CLR 21.7 21.7 100% 76.2 0.0
07 01:55 Calm 14.48 Fair CLR 21.8 21.8 28 21.8 100% 76.23 0.0
07 01:35 Calm 16.09 Fair CLR 22.3 22.3 100% 76.23 0.0
07 01:15 Calm 16.09 Fair CLR 22.5 22.4 99% 76.25 0.0
07 00:55 N 6 16.09 Fair CLR 23.4 22.7 96% 76.25 0.0
07 00:35 N 6 16.09 Fair CLR 23.4 22.7 96% 76.28 0.0
07 00:15 NW 6 16.09 Fair CLR 23.6 22.5 94% 76.28 0.0
06 23:55 N 7 16.09 Fair CLR 24 22.4 91% 24 76.28 0.0
06 23:35 NW 6 16.09 Fair CLR 24.2 22.3 89% 24 76.28 0.0
06 23:15 N 6 16.09 Fair CLR 24.5 22.2 87% 25 76.25 0.0
06 22:55 N 7 16.09 Fair CLR 24.8 22.3 86% 25 76.25 0.0
06 22:35 N 7 16.09 Fair CLR 24.7 22.1 86% 25 76.25 0.0
06 22:15 W 6 16.09 Fair CLR 25.4 22.2 83% 27 76.25 0.0
06 21:55 Calm 16.09 Fair CLR 26 21.2 75% 27 76.23 0.0
06 21:35 SW 6 16.09 Fair CLR 26.2 21 73% 28 76.23 0.0
06 21:15 SW 7 16.09 Fair CLR 26.5 20.5 70% 28 76.23 0.0
06 20:55 W 7 16.09 Fair CLR 26.8 19.8 66% 28 76.23 0.0
06 20:35 SW 11 16.09 Fair CLR 27 20 66% 29 76.2 0.0
06 20:15 SW 11 16.09 Fair CLR 27.6 20.8 67% 30 76.17 0.0
06 19:55 SW 13 14.48 Fair CLR 28.5 21.8 34 28.5 67% 31 76.17 0.0
06 19:35 SW 13 14.48 Fair CLR 29.1 22.1 66% 32 76.15 0.0
06 19:15 SW 15 16.09 Fair CLR 29.8 21.9 63% 33 76.15 0.0
06 18:55 SW 15 14.48 Fair CLR 30.7 21.9 59% 34 76.15 0.0
06 18:35 SW 17 14.48 A Few Clouds FEW070 31.4 21.6 56% 35 76.15 0.0
06 18:15 SW 17 16.09 A Few Clouds FEW070 32 20.5 51% 35 76.15 0.0
06 17:55 SW 15 16.09 Fair CLR 32.5 19.8 47% 35 76.15 0.0
06 17:35 SW 13 16.09 Fair CLR 32.7 19.8 47% 35 76.15 0.0
06 17:15 SW 7 16.09 Partly Cloudy SCT070 32.5 19.7 47% 34 76.15 0.0
06 16:55 W 7 16.09 A Few Clouds FEW070 33.7 16.9 37% 34 76.15 0.0
06 16:35 Calm 16.09 Fair CLR 32.9 16.7 38% 33 76.15 0.0
06 16:15 Vrbl 7 16.09 Fair CLR 33.1 17.1 38% 34 76.17 0.0
06 15:55 S 13 16.09 Fair CLR 32.8 16.9 39% 33 76.15 0.0
06 15:35 E 11 16.09 A Few Clouds FEW065 32.9 16.9 38% 33 76.17 0.0
06 15:15 Vrbl 6 16.09 Fair CLR 33 16.9 38% 33 76.2 0.0
06 14:55 Vrbl 9 16.09 Fair CLR 32.3 17 40% 33 76.23 0.0
06 14:35 Vrbl 7 16.09 Fair CLR 32.1 17.6 42% 33 76.25 0.0
06 14:15 Vrbl 11 16.09 A Few Clouds FEW350 31.9 17.4 42% 32 76.25 0.0
06 13:55 Vrbl 9 16.09 A Few Clouds FEW055 31.8 17.9 32 21.3 43% 33 76.28 0.0
06 13:35 NE 7 16.09 A Few Clouds FEW300 31.3 17.7 44% 32 76.3 0.0
06 13:15 S 13 16.09 A Few Clouds FEW360 31.4 17.7 44% 32 76.3 0.0
06 12:55 E 9 16.09 Fair CLR 30.6 18.5 48% 32 76.3 0.0
06 12:35 SE 15 16.09 Fair CLR 30.4 19.1 51% 32 76.33 0.0
06 12:15 SE 13 16.09 Fair CLR 30.5 18.7 49% 32 76.33 0.0
06 11:55 S 17 16.09 A Few Clouds FEW370 29.6 18.8 52% 31 76.33 0.0
06 11:35 SE 15 16.09 A Few Clouds FEW340 29.5 19.1 54% 31 76.33 0.0
06 11:15 SE 15 16.09 Fair CLR 28.8 19.1 56% 30 76.33 0.0
06 10:55 SE 11 14.48 Fair CLR 28.2 21 65% 30 76.33 0.0
06 10:35 SE 11 16.09 Fair CLR 27.6 21 67% 30 76.33 0.0
06 10:15 SE 15 16.09 Fair CLR 26.8 21.2 71% 29 76.35 0.0
06 09:55 S 11 16.09 Fair CLR 26.4 21.8 76% 28 76.35 0.0
06 09:35 S 13 14.48 Fair CLR 25.9 21.9 79% 27 76.33 0.0
06 09:15 SE 11 16.09 Fair CLR 24.6 21.6 83% 25 76.33 0.0
06 08:55 SE 13 16.09 Fair CLR 23.4 21.2 88% 76.3 0.0
06 08:15 SE 13 14.48 Fair CLR 22 20.6 92% 76.3 0.0
06 07:55 SE 9 12.87 Fair CLR 20.9 20 20.9 18.9 95% 76.28 0.0
06 07:35 SE 9 12.87 Fair CLR 20 19.5 97% 76.28 0.0
06 07:15 SE 6 12.87 Fair CLR 19.2 18.7 97% 76.25 0.0
06 06:55 SE 9 12.87 Fair CLR 19.4 18.7 96% 76.23 0.0
06 06:35 SE 7 12.87 Fair CLR 18.9 18.2 96% 76.23 0.0
06 06:15 SE 9 16.09 Fair CLR 19.2 18.2 94% 76.23 0.0
06 05:55 E 6 16.09 Fair CLR 19.2 18 93% 76.23 0.0
06 05:35 E 6 14.48 Fair CLR 19.1 17.9 93% 76.23 0.0
06 05:15 SE 6 16.09 Fair CLR 19.4 17.7 90% 76.2 0.0
06 04:55 SE 9 16.09 Fair CLR 19.3 17.5 89% 76.2 0.0
06 04:35 SE 9 16.09 Fair CLR 19.3 17.3 88% 76.2 0.0
06 04:15 SE 9 16.09 Fair CLR 19.9 17.3 85% 76.23 0.0
06 03:55 SE 6 16.09 Fair CLR 19.7 17 85% 76.23 0.0
06 03:35 E 7 16.09 Fair CLR 19.3 16.9 86% 76.23 0.0
06 03:15 SE 6 16.09 Fair CLR 19.8 16.8 83% 76.23 0.0
06 02:55 SE 6 16.09 Fair CLR 20.2 16.6 80% 76.23 0.0
06 01:55 Calm 16.09 Fair CLR 20.7 16.5 27.9 20.5 77% 76.28 0.0
06 01:35 SE 6 16.09 Fair CLR 20.7 16.4 77% 76.28 0.0
06 01:15 E 6 16.09 Fair CLR 21 16.1 74% 76.3 0.0
06 00:55 SE 6 14.48 Fair CLR 21.4 15.9 71% 76.3 0.0
06 00:35 E 6 16.09 Fair CLR 21.5 15.9 71% 76.3 0.0
06 00:15 E 9 16.09 Fair CLR 22.1 15.7 67% 76.3 0.0
05 23:55 E 11 14.48 Fair CLR 22.5 15.6 65% 76.3 0.0
05 23:35 SE 13 16.09 Fair CLR 22.8 15.6 64% 76.3 0.0
05 23:15 SE 13 16.09 Fair CLR 23.2 15.5 62% 76.3 0.0
05 22:55 SE 13 16.09 Fair CLR 23.5 15.5 61% 76.28 0.0
05 22:35 E 11 16.09 A Few Clouds FEW050 23.5 15.5 61% 76.28 0.0
05 22:15 SE 13 16.09 Partly Cloudy SCT048 24.3 15.3 57% 25 76.28 0.0
05 21:55 SE 17 16.09 Mostly Cloudy BKN045 BKN060 25 15.8 57% 26 76.25 0.0
05 21:35 E 11 16.09 Overcast BKN045 OVC055 25.2 16.1 57% 26 76.23 0.0
05 21:15 E 7 16.09 Overcast BKN045 OVC055 25.5 16.3 57% 26 76.2 0.0
05 20:55 E 15 16.09 Mostly Cloudy SCT038 BKN050 26.1 16.6 56% 27 76.17 0.0
05 20:35 NW 9 16.09 Partly Cloudy SCT070 26.2 18.3 62% 27 76.15 0.0
05 20:15 NW 11 14.48 Mostly Cloudy BKN070 BKN080 26.8 18.2 59% 28 76.12 0.0
05 19:55 SE 7 16.09 Partly Cloudy SCT070 SCT085 28.1 15 30.8 28.1 45% 28 76.1 0.0
05 19:35 SE 11 16.09 Partly Cloudy SCT070 28.6 14.9 43% 28 76.1 0.0
Date Time (edt) Wind (kph) Vis. (km) Weather Sky Cond. Air Dwpt Max. Min. Relative Humidity Wind Chill (°C) Heat Index (°C) altimeter (cm) sea level (mb) 1 hr 3 hr 6 hr
6 hour
Temperature (ºC) Pressure Precipitation (cm)